Terminal Aerodrome Forecast
Issued by NWS Albany, NY

Home | Current Version | Previous Version | Text Only | Print | Product List | Glossary On
Versions: 1 2 3 4 5 6 7 8 9 10 11 12
613
FTUS41 KALY 251739
TAFPOU
TAF
KPOU 251739Z 2518/2618 18010G16KT P6SM FEW030
     FM260200 20004KT 6SM BR SCT020 BKN040
     FM260800 VRB03KT 4SM -SHRA BR FEW008 BKN020 OVC040=

USA.gov is the U.S. government's official web portal to all federal, state and local government web resources and services.